TAF KICT
KICT 072324Z 0800/0824 19006KT P6SM OVC190 FM080100 VRB04KT P6SM SCT150 BKN190 FM082100 17012KT P6SM FEW250=
METAR KICT
WC KICT
WS KICT
WV KICT